Aktualne dane pomiarowe

Uwaga, wersja testowa! Automatyczne pobieranie danych za pomocą narzędzi lub skryptów to umożliwiających jest zabronione.

Dane meteo z obszaru Polski uzyskane na podstawie depesz SYNOP pobieranych co godzinę z NWS. Najedź myszką na symbol przedstawiony w tabeli, aby uzyskać informacje co do jego znaczenia. Prosimy pamiętać, że to testowa wersja strony, która jeszcze nie jest ukończona. Stworzono również jest krótki FAQ dotyczący korzystania z tej podstrony Anomalie temperatury w chwili obecnej odniesione są do okresu referencyjnego 1951-2016. Okres ten będzie później zmieniony na 1981-2010. Kliknij ikonę aby pobrać plik CSV. Kliknij ikonę aby wygenerować mapę synoptyczną dla danego terminu.

Wybierz Datę:    

        

Katowice (12560)

Dane terminowe dla wybranej stacji. Kliknij datę, aby otrzymać dane z tego terminu dla wszystkich stacji.

TemperaturaZachmurzenieWiatrCiśnienieOpadyPogoda
 Data t td wb tx tn tg rh  Nt Nl Cl Cm Ch ws wd g1 g2 wx mslp ppp ch 24h 12h t ww ww w1 w2  
2019-06-19 23:00:00 17.6 15.8 16.3--- 8915.0wx-wxwx1wx---1011.3 978.6 -0.6---------
2019-06-19 22:00:00 19.7 16.9 17.7--- 8420.0wx-wxwx1wx---1011.2 978.7 -0.2---------
2019-06-19 21:00:00 20.8 16.6 17.9--- 7720.0wx-wxwx1wx--11011.4 979.0 0.3---------
2019-06-19 20:00:00 20.3 16.9 17.9--- 8120.0wx-wx1wx--11011.6 979.2 0.7---------
2019-06-19 19:00:00 23.0 16.5 18.6--- 6720.0wx-wxwx1wx--11011.0 978.9 0.3---------
2019-06-19 18:00:00 23.9 17.2 19.4 28.1 21.4- 6630.0wx-wxwx2wx--21010.7 978.7 -0.3- 0.012------
2019-06-19 17:00:00 24.7 17.9 20.1--- 6630.0wxwxwxwx2wx--21010.4 978.5 -0.7---------
2019-06-19 16:00:00 25.3 16.7 19.6--- 5930.0wxwxwxwx3wx--31010.4 978.6 -1.2---------
2019-06-19 15:00:00 26.6 14.0 18.7--- 4630.0wxwxwxwx4wx---1010.7 979.0 -1.1---------
2019-06-19 14:00:00 27.4 14.4 19.2--- 4530.0wxwxwxwx3wx--31010.8 979.2 -1.3---------
2019-06-19 13:00:00 26.7 13.4 18.5--- 4430.0wxwxwxwx4wx--41011.5 979.8 -1.1---------
2019-06-19 12:00:00 26.6 15.6 19.5--- 5130.0wxwxwxwx2wx--21011.9 980.1 -1.1- 0.06------
2019-06-19 11:00:00 27.0 15.7 19.7--- 5030.0wxwxwxwx2wx--21012.2 980.5 -1.1---------
2019-06-19 10:00:00 26.2 16.2 19.7--- 5430.0wxwxwxwx2wx--21012.7 980.9 -1.0---------
2019-06-19 09:00:00 26.1 16.4 19.8--- 5530.0wxwxwxwx2wx--21013.0 981.2 -0.8---------
2019-06-19 08:00:00 24.9 16.6 19.4--- 6030.0wxwxwxwxwx3wx---1013.6 981.6 -0.5---------
2019-06-19 07:00:00 23.5 17.0 19.1--- 6730.0wxwxwxwx3wx--31014.1 981.9 0.0---------
2019-06-19 06:00:00 21.5 17.3 18.6 22.6 15.6 14 7720.0wxwxwxwx1wx--11014.4 982.0 0.0- 0.012----- 10.1
2019-06-19 05:00:00 19.2 17.2 17.8--- 8810.0wx-wx1wx--11014.7 982.1 0.1---------
2019-06-19 04:00:00 16.6 15.6 15.9--- 9410.0wxwxwxwxwx0---01014.8 981.9 -0.4---------
2019-06-19 03:00:00 16.0 15.0 15.3--- 9410.0wxwxwxwxwx0---01015.0 982.0 -0.7---wx---
2019-06-19 02:00:00 15.7 14.6 14.9--- 9310.0wx-wx1wx--11015.0 982.0 -1.1---wx---
2019-06-19 01:00:00 16.3 15.2 15.5--- 9310.0wx-wx1wx--11015.3 982.3 -1.1---------
2019-06-19 00:00:00 16.5 14.9 15.4--- 9010.0wx-wxwx1wx--11015.7 982.7 -1.1- 0.06------
2019-06-18 23:00:00 16.3 14.1 14.8--- 8710.0wx-wxwx1wx--11016.1 983.1 -0.8---------
2019-06-18 22:00:00 16.9 14.5 15.2--- 8610.0wx-wxwx1wx---1016.3 983.4 -0.4---------
2019-06-18 21:00:00 18.3 14.2 15.5--- 7715.0wx-wx1wx--11016.6 983.8 0.1---------
2019-06-18 20:00:00 20.0 14.4 16.3--- 7015.0wx-wx2wx--21016.5 983.9 0.1---------
2019-06-18 19:00:00 21.2 14.4 16.8--- 6520.0wx-wxwx3wx--31016.3 983.8 -0.1---------
2019-06-18 18:00:00 22.6 14.7 17.5 25.1 19.3- 6130.0wxwxwxwx4wx-1441016.0 983.7 -0.6- 0.012------
2019-06-18 17:00:00 23.8 14.5 17.9--- 5630.0wxwxwxwx4wx---1016.0 983.8 -1.2---------
2019-06-18 16:00:00 23.4 14.1 17.5--- 5630.0wxwxwxwx4wx-1441016.1 983.9 -1.5---------
2019-06-18 15:00:00 24.6 13.8 17.8--- 5130.0wxwxwxwx4wx---1016.4 984.3 -1.4---------
2019-06-18 14:00:00 24.5 13.7 17.7--- 5130.0wxwxwxwx5wx--51017.1 985.0 -1.3---------
2019-06-18 13:00:00 23.6 13.7 17.4--- 5430.0wxwxwx5wx--51017.7 985.4 -1.1---------
2019-06-18 12:00:00 24.9 14.4 18.2--- 5230.0wxwxwxwx3wx--31017.8 985.7 -1.0- 0.06------
2019-06-18 11:00:00 23.5 13.1 17.0--- 5230.0wxwxwx4wx--41018.6 986.3 -0.7---------
2019-06-18 10:00:00 22.9 12.2 16.3--- 5130.0wxwxwxwx4wx--41018.9 986.5 -0.9---------
2019-06-18 09:00:00 22.4 13.2 16.6--- 5630.0wxwxwxwx4wx--41019.1 986.7 -0.8---------
2019-06-18 08:00:00 21.3 13.7 16.4--- 6230.0wxwxwxwx4wx--41019.6 987.0 -0.3---------
2019-06-18 07:00:00 21.0 14.9 17.0--- 6820.0wxwxwxwx3wx---1020.0 987.4 0.3---------
2019-06-18 06:00:00 19.4 14.4 16.1 23.0 13.4 11 7320.0wx-wx3wx--31020.3 987.5 0.3- 0.012----- 12.1
2019-06-18 05:00:00 17.7 13.4 14.8--- 7630.0wx-wx3wx--31020.3 987.3 0.1---------
2019-06-18 04:00:00 15.6 13.1 13.9--- 8530.0wx-wx2wx--21020.3 987.1 -0.2---------
2019-06-18 03:00:00 13.4 11.6 12.1--- 8920.0wx-wx0---01020.7 987.2 -0.4---------
2019-06-18 02:00:00 13.9 11.8 12.5--- 8730.0wx-wx1wx---1020.6 987.2 -0.7---------
2019-06-18 01:00:00 15.5 11.7 13.0--- 7830.0wx-wx1wx---1020.5 987.3 -0.5---------
2019-06-18 00:00:00 15.9 11.3 12.9--- 7430.0wx-wx2wx--21020.8 987.6 -0.1- 0.06------
1.4 ms

 

Print Friendly, PDF & Email